sensor_id;sensor_type;location;lat;lon;timestamp;P1;durP1;ratioP1;P2;durP2;ratioP2
11699;SDS011;5906;51.660;6.674;2023-06-19T00:02:12;7.07;;;6.30;;
11699;SDS011;5906;51.660;6.674;2023-06-19T00:04:39;7.40;;;6.00;;
11699;SDS011;5906;51.660;6.674;2023-06-19T00:07:06;9.30;;;6.67;;
11699;SDS011;5906;51.660;6.674;2023-06-19T00:09:38;8.93;;;6.67;;
11699;SDS011;5906;51.660;6.674;2023-06-19T00:12:30;8.67;;;6.67;;
11699;SDS011;5906;51.660;6.674;2023-06-19T00:14:57;12.03;;;6.23;;
11699;SDS011;5906;51.660;6.674;2023-06-19T00:17:23;9.17;;;6.93;;
11699;SDS011;5906;51.660;6.674;2023-06-19T00:19:52;8.10;;;6.80;;
11699;SDS011;5906;51.660;6.674;2023-06-19T00:22:19;11.37;;;6.93;;
11699;SDS011;5906;51.660;6.674;2023-06-19T00:24:46;14.20;;;6.90;;
11699;SDS011;5906;51.660;6.674;2023-06-19T00:27:12;11.63;;;7.03;;
11699;SDS011;5906;51.660;6.674;2023-06-19T00:29:39;8.30;;;6.43;;
11699;SDS011;5906;51.660;6.674;2023-06-19T00:32:06;8.33;;;6.93;;
11699;SDS011;5906;51.660;6.674;2023-06-19T00:34:33;9.90;;;6.70;;
11699;SDS011;5906;51.660;6.674;2023-06-19T00:37:00;9.07;;;6.67;;
11699;SDS011;5906;51.660;6.674;2023-06-19T00:39:26;10.67;;;6.63;;
11699;SDS011;5906;51.660;6.674;2023-06-19T00:41:54;8.30;;;6.30;;
11699;SDS011;5906;51.660;6.674;2023-06-19T00:44:22;9.40;;;6.37;;
11699;SDS011;5906;51.660;6.674;2023-06-19T00:46:56;9.40;;;6.57;;
11699;SDS011;5906;51.660;6.674;2023-06-19T00:49:26;9.00;;;6.50;;
11699;SDS011;5906;51.660;6.674;2023-06-19T00:51:54;13.30;;;6.93;;
11699;SDS011;5906;51.660;6.674;2023-06-19T00:54:21;11.13;;;7.00;;
11699;SDS011;5906;51.660;6.674;2023-06-19T00:56:48;9.27;;;6.30;;
11699;SDS011;5906;51.660;6.674;2023-06-19T00:59:16;7.23;;;6.07;;
11699;SDS011;5906;51.660;6.674;2023-06-19T01:01:45;10.90;;;7.13;;
11699;SDS011;5906;51.660;6.674;2023-06-19T01:04:12;10.10;;;6.33;;
11699;SDS011;5906;51.660;6.674;2023-06-19T01:06:53;10.90;;;6.30;;
11699;SDS011;5906;51.660;6.674;2023-06-19T01:09:28;17.83;;;6.60;;
11699;SDS011;5906;51.660;6.674;2023-06-19T01:12:02;9.30;;;6.83;;
11699;SDS011;5906;51.660;6.674;2023-06-19T01:17:23;8.30;;;6.50;;
11699;SDS011;5906;51.660;6.674;2023-06-19T01:19:51;10.90;;;7.40;;
11699;SDS011;5906;51.660;6.674;2023-06-19T01:26:05;8.60;;;6.40;;
11699;SDS011;5906;51.660;6.674;2023-06-19T01:28:36;9.20;;;6.90;;
11699;SDS011;5906;51.660;6.674;2023-06-19T01:31:06;8.10;;;6.60;;
11699;SDS011;5906;51.660;6.674;2023-06-19T01:33:49;13.77;;;6.90;;
11699;SDS011;5906;51.660;6.674;2023-06-19T01:36:18;8.47;;;6.90;;
11699;SDS011;5906;51.660;6.674;2023-06-19T01:38:46;9.30;;;7.17;;
11699;SDS011;5906;51.660;6.674;2023-06-19T01:41:15;7.40;;;6.20;;
11699;SDS011;5906;51.660;6.674;2023-06-19T01:43:43;12.63;;;7.40;;
11699;SDS011;5906;51.660;6.674;2023-06-19T01:46:11;9.00;;;6.97;;
11699;SDS011;5906;51.660;6.674;2023-06-19T01:48:38;10.30;;;6.83;;
11699;SDS011;5906;51.660;6.674;2023-06-19T01:51:06;8.97;;;6.03;;
11699;SDS011;5906;51.660;6.674;2023-06-19T01:53:33;10.03;;;7.33;;
11699;SDS011;5906;51.660;6.674;2023-06-19T01:56:01;9.90;;;6.63;;
11699;SDS011;5906;51.660;6.674;2023-06-19T01:58:28;8.07;;;6.97;;
11699;SDS011;5906;51.660;6.674;2023-06-19T02:00:55;8.30;;;6.83;;
11699;SDS011;5906;51.660;6.674;2023-06-19T02:03:21;9.73;;;7.23;;
11699;SDS011;5906;51.660;6.674;2023-06-19T02:05:48;10.60;;;6.77;;
11699;SDS011;5906;51.660;6.674;2023-06-19T02:08:15;8.50;;;7.27;;
11699;SDS011;5906;51.660;6.674;2023-06-19T02:10:42;8.63;;;7.10;;
11699;SDS011;5906;51.660;6.674;2023-06-19T02:13:09;8.80;;;7.20;;
11699;SDS011;5906;51.660;6.674;2023-06-19T02:15:35;8.87;;;6.47;;
11699;SDS011;5906;51.660;6.674;2023-06-19T02:18:02;10.23;;;7.30;;
11699;SDS011;5906;51.660;6.674;2023-06-19T02:20:29;12.00;;;7.53;;
11699;SDS011;5906;51.660;6.674;2023-06-19T02:22:56;8.03;;;6.73;;
11699;SDS011;5906;51.660;6.674;2023-06-19T02:25:23;8.80;;;7.30;;
11699;SDS011;5906;51.660;6.674;2023-06-19T02:27:49;8.20;;;6.57;;
11699;SDS011;5906;51.660;6.674;2023-06-19T02:30:16;8.20;;;6.70;;
11699;SDS011;5906;51.660;6.674;2023-06-19T02:32:43;9.00;;;7.43;;
11699;SDS011;5906;51.660;6.674;2023-06-19T02:35:10;10.80;;;7.73;;
11699;SDS011;5906;51.660;6.674;2023-06-19T02:37:37;10.87;;;7.63;;
11699;SDS011;5906;51.660;6.674;2023-06-19T02:40:04;13.90;;;8.30;;
11699;SDS011;5906;51.660;6.674;2023-06-19T02:42:32;8.70;;;6.93;;
11699;SDS011;5906;51.660;6.674;2023-06-19T02:44:59;9.60;;;7.37;;
11699;SDS011;5906;51.660;6.674;2023-06-19T02:47:29;8.40;;;6.60;;
11699;SDS011;5906;51.660;6.674;2023-06-19T02:50:01;8.30;;;6.90;;
11699;SDS011;5906;51.660;6.674;2023-06-19T02:52:29;11.77;;;7.30;;
11699;SDS011;5906;51.660;6.674;2023-06-19T02:54:56;11.67;;;7.50;;
11699;SDS011;5906;51.660;6.674;2023-06-19T02:57:23;10.40;;;8.20;;
11699;SDS011;5906;51.660;6.674;2023-06-19T02:59:50;10.53;;;7.40;;
11699;SDS011;5906;51.660;6.674;2023-06-19T03:02:16;9.20;;;7.20;;
11699;SDS011;5906;51.660;6.674;2023-06-19T03:04:43;10.10;;;6.77;;
11699;SDS011;5906;51.660;6.674;2023-06-19T03:07:11;8.00;;;6.70;;
11699;SDS011;5906;51.660;6.674;2023-06-19T03:09:40;11.70;;;7.30;;
11699;SDS011;5906;51.660;6.674;2023-06-19T03:12:07;7.57;;;5.97;;
11699;SDS011;5906;51.660;6.674;2023-06-19T03:14:35;8.70;;;6.83;;
11699;SDS011;5906;51.660;6.674;2023-06-19T03:17:02;8.20;;;5.93;;
11699;SDS011;5906;51.660;6.674;2023-06-19T03:19:29;7.80;;;5.90;;
11699;SDS011;5906;51.660;6.674;2023-06-19T03:21:55;8.23;;;5.80;;
11699;SDS011;5906;51.660;6.674;2023-06-19T03:24:24;8.70;;;6.10;;
11699;SDS011;5906;51.660;6.674;2023-06-19T03:26:52;8.40;;;6.00;;
11699;SDS011;5906;51.660;6.674;2023-06-19T03:29:19;7.13;;;5.40;;
11699;SDS011;5906;51.660;6.674;2023-06-19T03:31:46;8.37;;;5.30;;
11699;SDS011;5906;51.660;6.674;2023-06-19T03:34:13;9.90;;;6.67;;
11699;SDS011;5906;51.660;6.674;2023-06-19T03:36:39;7.20;;;5.63;;
11699;SDS011;5906;51.660;6.674;2023-06-19T03:39:06;7.30;;;5.63;;
11699;SDS011;5906;51.660;6.674;2023-06-19T03:41:33;7.30;;;5.43;;
11699;SDS011;5906;51.660;6.674;2023-06-19T03:44:00;6.10;;;5.00;;
11699;SDS011;5906;51.660;6.674;2023-06-19T03:46:27;8.27;;;5.50;;
11699;SDS011;5906;51.660;6.674;2023-06-19T03:48:54;7.10;;;4.80;;
11699;SDS011;5906;51.660;6.674;2023-06-19T03:51:20;9.33;;;4.10;;
11699;SDS011;5906;51.660;6.674;2023-06-19T03:53:47;6.67;;;4.00;;
11699;SDS011;5906;51.660;6.674;2023-06-19T03:56:15;6.93;;;4.57;;
11699;SDS011;5906;51.660;6.674;2023-06-19T03:58:42;8.17;;;5.10;;
11699;SDS011;5906;51.660;6.674;2023-06-19T04:01:09;7.63;;;4.97;;
11699;SDS011;5906;51.660;6.674;2023-06-19T04:03:35;10.73;;;4.80;;
11699;SDS011;5906;51.660;6.674;2023-06-19T04:06:06;5.50;;;4.43;;
11699;SDS011;5906;51.660;6.674;2023-06-19T04:08:33;6.13;;;4.27;;
11699;SDS011;5906;51.660;6.674;2023-06-19T04:10:59;5.90;;;4.07;;
11699;SDS011;5906;51.660;6.674;2023-06-19T04:13:27;6.10;;;4.40;;
11699;SDS011;5906;51.660;6.674;2023-06-19T04:15:53;9.10;;;4.07;;
11699;SDS011;5906;51.660;6.674;2023-06-19T04:18:20;5.87;;;3.97;;
11699;SDS011;5906;51.660;6.674;2023-06-19T04:20:51;6.80;;;3.77;;
11699;SDS011;5906;51.660;6.674;2023-06-19T04:23:35;8.00;;;4.47;;
11699;SDS011;5906;51.660;6.674;2023-06-19T04:26:11;8.40;;;4.70;;
11699;SDS011;5906;51.660;6.674;2023-06-19T04:28:53;6.40;;;4.40;;
11699;SDS011;5906;51.660;6.674;2023-06-19T04:31:32;8.43;;;4.30;;
11699;SDS011;5906;51.660;6.674;2023-06-19T04:34:30;5.23;;;4.10;;
11699;SDS011;5906;51.660;6.674;2023-06-19T04:37:00;8.03;;;4.50;;
11699;SDS011;5906;51.660;6.674;2023-06-19T04:39:56;6.23;;;4.37;;
11699;SDS011;5906;51.660;6.674;2023-06-19T04:42:32;7.23;;;4.40;;
11699;SDS011;5906;51.660;6.674;2023-06-19T04:45:07;12.67;;;3.87;;
11699;SDS011;5906;51.660;6.674;2023-06-19T04:47:37;5.57;;;4.23;;
11699;SDS011;5906;51.660;6.674;2023-06-19T04:50:18;4.13;;;3.33;;
11699;SDS011;5906;51.660;6.674;2023-06-19T04:52:44;5.20;;;3.70;;
11699;SDS011;5906;51.660;6.674;2023-06-19T04:55:11;5.03;;;4.10;;
11699;SDS011;5906;51.660;6.674;2023-06-19T04:57:38;6.53;;;4.00;;
11699;SDS011;5906;51.660;6.674;2023-06-19T05:00:05;6.03;;;4.30;;
11699;SDS011;5906;51.660;6.674;2023-06-19T05:02:33;5.33;;;3.73;;
11699;SDS011;5906;51.660;6.674;2023-06-19T05:05:01;5.30;;;3.90;;
11699;SDS011;5906;51.660;6.674;2023-06-19T05:07:29;4.50;;;3.30;;
11699;SDS011;5906;51.660;6.674;2023-06-19T05:09:57;6.70;;;4.13;;
11699;SDS011;5906;51.660;6.674;2023-06-19T05:12:25;7.20;;;4.30;;
11699;SDS011;5906;51.660;6.674;2023-06-19T05:14:51;5.30;;;3.73;;
11699;SDS011;5906;51.660;6.674;2023-06-19T05:17:18;5.20;;;4.13;;
11699;SDS011;5906;51.660;6.674;2023-06-19T05:19:45;5.83;;;4.10;;
11699;SDS011;5906;51.660;6.674;2023-06-19T05:22:12;4.73;;;3.50;;
11699;SDS011;5906;51.660;6.674;2023-06-19T05:24:39;4.43;;;3.37;;
11699;SDS011;5906;51.660;6.674;2023-06-19T05:27:08;6.77;;;3.77;;
11699;SDS011;5906;51.660;6.674;2023-06-19T05:29:35;4.27;;;3.73;;
11699;SDS011;5906;51.660;6.674;2023-06-19T05:32:02;7.60;;;4.23;;
11699;SDS011;5906;51.660;6.674;2023-06-19T05:34:29;6.47;;;3.77;;
11699;SDS011;5906;51.660;6.674;2023-06-19T05:36:57;7.23;;;4.20;;
11699;SDS011;5906;51.660;6.674;2023-06-19T05:39:25;8.60;;;4.63;;
11699;SDS011;5906;51.660;6.674;2023-06-19T05:41:54;7.33;;;4.10;;
11699;SDS011;5906;51.660;6.674;2023-06-19T05:44:21;6.43;;;3.73;;
11699;SDS011;5906;51.660;6.674;2023-06-19T05:46:48;4.70;;;3.27;;
11699;SDS011;5906;51.660;6.674;2023-06-19T05:49:17;24.40;;;5.40;;
11699;SDS011;5906;51.660;6.674;2023-06-19T05:51:44;36.10;;;5.80;;
11699;SDS011;5906;51.660;6.674;2023-06-19T05:54:13;6.33;;;3.60;;
11699;SDS011;5906;51.660;6.674;2023-06-19T05:56:40;5.63;;;3.27;;
11699;SDS011;5906;51.660;6.674;2023-06-19T05:59:07;4.17;;;3.40;;
11699;SDS011;5906;51.660;6.674;2023-06-19T06:01:48;6.83;;;4.00;;
11699;SDS011;5906;51.660;6.674;2023-06-19T06:04:27;4.93;;;3.63;;
11699;SDS011;5906;51.660;6.674;2023-06-19T06:06:53;9.97;;;3.63;;
11699;SDS011;5906;51.660;6.674;2023-06-19T06:09:28;8.07;;;3.73;;
11699;SDS011;5906;51.660;6.674;2023-06-19T06:12:11;7.10;;;3.17;;
11699;SDS011;5906;51.660;6.674;2023-06-19T06:14:44;4.67;;;3.47;;
11699;SDS011;5906;51.660;6.674;2023-06-19T06:20:33;6.60;;;3.93;;
11699;SDS011;5906;51.660;6.674;2023-06-19T06:23:08;20.20;;;4.87;;
11699;SDS011;5906;51.660;6.674;2023-06-19T06:25:38;9.03;;;2.80;;
11699;SDS011;5906;51.660;6.674;2023-06-19T06:28:08;5.27;;;3.87;;
11699;SDS011;5906;51.660;6.674;2023-06-19T06:30:49;8.73;;;3.37;;
11699;SDS011;5906;51.660;6.674;2023-06-19T06:33:18;4.13;;;3.23;;
11699;SDS011;5906;51.660;6.674;2023-06-19T06:35:54;4.70;;;3.53;;
11699;SDS011;5906;51.660;6.674;2023-06-19T06:38:21;5.90;;;3.47;;
11699;SDS011;5906;51.660;6.674;2023-06-19T06:41:16;6.40;;;3.47;;
11699;SDS011;5906;51.660;6.674;2023-06-19T06:43:44;10.53;;;3.63;;
11699;SDS011;5906;51.660;6.674;2023-06-19T06:46:18;6.33;;;3.40;;
11699;SDS011;5906;51.660;6.674;2023-06-19T06:48:57;5.70;;;3.57;;
11699;SDS011;5906;51.660;6.674;2023-06-19T06:51:46;6.57;;;4.07;;
11699;SDS011;5906;51.660;6.674;2023-06-19T06:54:13;4.87;;;3.30;;
11699;SDS011;5906;51.660;6.674;2023-06-19T06:56:40;3.67;;;3.33;;
11699;SDS011;5906;51.660;6.674;2023-06-19T06:59:07;4.73;;;3.70;;
11699;SDS011;5906;51.660;6.674;2023-06-19T07:01:34;6.00;;;3.97;;
11699;SDS011;5906;51.660;6.674;2023-06-19T07:04:01;6.17;;;3.73;;
11699;SDS011;5906;51.660;6.674;2023-06-19T07:06:28;12.50;;;3.83;;
11699;SDS011;5906;51.660;6.674;2023-06-19T07:08:55;5.53;;;3.57;;
11699;SDS011;5906;51.660;6.674;2023-06-19T07:11:22;5.17;;;3.13;;
11699;SDS011;5906;51.660;6.674;2023-06-19T07:13:49;3.60;;;3.17;;
11699;SDS011;5906;51.660;6.674;2023-06-19T07:16:16;10.13;;;3.37;;
11699;SDS011;5906;51.660;6.674;2023-06-19T07:18:43;9.17;;;3.77;;
11699;SDS011;5906;51.660;6.674;2023-06-19T07:21:11;4.50;;;3.53;;
11699;SDS011;5906;51.660;6.674;2023-06-19T07:23:42;5.43;;;4.07;;
11699;SDS011;5906;51.660;6.674;2023-06-19T07:26:12;4.77;;;3.30;;
11699;SDS011;5906;51.660;6.674;2023-06-19T07:28:40;4.83;;;3.37;;
11699;SDS011;5906;51.660;6.674;2023-06-19T07:31:07;4.73;;;3.87;;
11699;SDS011;5906;51.660;6.674;2023-06-19T07:33:35;4.40;;;3.57;;
11699;SDS011;5906;51.660;6.674;2023-06-19T07:36:02;4.30;;;3.90;;
11699;SDS011;5906;51.660;6.674;2023-06-19T07:38:29;6.40;;;3.43;;
11699;SDS011;5906;51.660;6.674;2023-06-19T07:40:56;8.33;;;4.63;;
11699;SDS011;5906;51.660;6.674;2023-06-19T07:43:23;12.40;;;5.47;;
11699;SDS011;5906;51.660;6.674;2023-06-19T07:45:50;7.80;;;4.80;;
11699;SDS011;5906;51.660;6.674;2023-06-19T07:48:17;5.90;;;4.70;;
11699;SDS011;5906;51.660;6.674;2023-06-19T07:50:44;7.83;;;4.47;;
11699;SDS011;5906;51.660;6.674;2023-06-19T07:53:12;6.00;;;4.53;;
11699;SDS011;5906;51.660;6.674;2023-06-19T07:55:40;11.13;;;4.90;;
11699;SDS011;5906;51.660;6.674;2023-06-19T07:58:08;5.10;;;4.43;;
11699;SDS011;5906;51.660;6.674;2023-06-19T08:00:35;5.33;;;3.70;;
11699;SDS011;5906;51.660;6.674;2023-06-19T08:03:02;5.70;;;3.60;;
11699;SDS011;5906;51.660;6.674;2023-06-19T08:05:29;4.50;;;3.87;;
11699;SDS011;5906;51.660;6.674;2023-06-19T08:07:56;6.40;;;4.40;;
11699;SDS011;5906;51.660;6.674;2023-06-19T08:10:25;10.03;;;3.90;;
11699;SDS011;5906;51.660;6.674;2023-06-19T08:12:52;4.80;;;3.43;;
11699;SDS011;5906;51.660;6.674;2023-06-19T08:15:19;5.70;;;4.00;;
11699;SDS011;5906;51.660;6.674;2023-06-19T08:17:46;4.40;;;3.80;;
11699;SDS011;5906;51.660;6.674;2023-06-19T08:20:13;4.30;;;3.90;;
11699;SDS011;5906;51.660;6.674;2023-06-19T08:22:40;5.40;;;3.67;;
11699;SDS011;5906;51.660;6.674;2023-06-19T08:25:08;5.40;;;3.90;;
11699;SDS011;5906;51.660;6.674;2023-06-19T08:27:35;7.70;;;4.53;;
11699;SDS011;5906;51.660;6.674;2023-06-19T08:30:02;7.93;;;3.93;;
11699;SDS011;5906;51.660;6.674;2023-06-19T08:32:29;6.60;;;4.03;;
11699;SDS011;5906;51.660;6.674;2023-06-19T08:34:56;4.50;;;3.40;;
11699;SDS011;5906;51.660;6.674;2023-06-19T08:37:24;7.03;;;3.90;;
11699;SDS011;5906;51.660;6.674;2023-06-19T08:39:51;4.80;;;3.60;;
11699;SDS011;5906;51.660;6.674;2023-06-19T08:42:17;5.40;;;3.87;;
11699;SDS011;5906;51.660;6.674;2023-06-19T08:44:44;5.80;;;4.00;;
11699;SDS011;5906;51.660;6.674;2023-06-19T08:47:11;4.70;;;3.57;;
11699;SDS011;5906;51.660;6.674;2023-06-19T08:49:39;4.10;;;3.00;;
11699;SDS011;5906;51.660;6.674;2023-06-19T08:52:06;9.63;;;3.50;;
11699;SDS011;5906;51.660;6.674;2023-06-19T08:54:33;6.70;;;3.10;;
11699;SDS011;5906;51.660;6.674;2023-06-19T08:57:14;8.23;;;3.10;;
11699;SDS011;5906;51.660;6.674;2023-06-19T08:59:47;3.90;;;2.57;;
11699;SDS011;5906;51.660;6.674;2023-06-19T09:02:15;7.50;;;2.63;;
11699;SDS011;5906;51.660;6.674;2023-06-19T09:04:43;4.87;;;3.13;;
11699;SDS011;5906;51.660;6.674;2023-06-19T09:07:11;3.80;;;3.17;;
11699;SDS011;5906;51.660;6.674;2023-06-19T09:09:43;6.40;;;3.03;;
11699;SDS011;5906;51.660;6.674;2023-06-19T09:12:13;3.27;;;2.70;;
11699;SDS011;5906;51.660;6.674;2023-06-19T09:14:42;3.87;;;3.00;;
11699;SDS011;5906;51.660;6.674;2023-06-19T09:17:19;4.10;;;3.40;;
11699;SDS011;5906;51.660;6.674;2023-06-19T09:19:50;3.93;;;3.40;;
11699;SDS011;5906;51.660;6.674;2023-06-19T09:22:20;7.80;;;3.80;;
11699;SDS011;5906;51.660;6.674;2023-06-19T09:24:49;5.50;;;3.10;;
11699;SDS011;5906;51.660;6.674;2023-06-19T09:27:17;6.10;;;3.80;;
11699;SDS011;5906;51.660;6.674;2023-06-19T09:29:49;5.77;;;3.63;;
11699;SDS011;5906;51.660;6.674;2023-06-19T09:32:21;3.93;;;3.13;;
11699;SDS011;5906;51.660;6.674;2023-06-19T09:34:50;7.40;;;3.77;;
11699;SDS011;5906;51.660;6.674;2023-06-19T09:37:22;7.07;;;4.00;;
11699;SDS011;5906;51.660;6.674;2023-06-19T09:39:55;5.83;;;4.20;;
11699;SDS011;5906;51.660;6.674;2023-06-19T09:42:38;4.70;;;3.90;;
11699;SDS011;5906;51.660;6.674;2023-06-19T09:45:08;11.37;;;4.00;;
11699;SDS011;5906;51.660;6.674;2023-06-19T09:50:15;6.50;;;4.00;;
11699;SDS011;5906;51.660;6.674;2023-06-19T09:52:44;9.13;;;4.23;;
11699;SDS011;5906;51.660;6.674;2023-06-19T09:55:12;23.80;;;5.33;;
11699;SDS011;5906;51.660;6.674;2023-06-19T09:57:40;16.90;;;4.80;;
11699;SDS011;5906;51.660;6.674;2023-06-19T10:00:08;4.80;;;4.30;;
11699;SDS011;5906;51.660;6.674;2023-06-19T10:02:42;6.63;;;3.77;;
11699;SDS011;5906;51.660;6.674;2023-06-19T10:05:11;5.13;;;4.17;;
11699;SDS011;5906;51.660;6.674;2023-06-19T10:07:41;8.37;;;4.17;;
11699;SDS011;5906;51.660;6.674;2023-06-19T10:12:43;6.23;;;4.20;;
11699;SDS011;5906;51.660;6.674;2023-06-19T10:15:23;6.50;;;4.57;;
11699;SDS011;5906;51.660;6.674;2023-06-19T10:17:59;8.53;;;4.37;;
11699;SDS011;5906;51.660;6.674;2023-06-19T10:20:28;7.03;;;4.30;;
11699;SDS011;5906;51.660;6.674;2023-06-19T10:23:06;6.67;;;4.60;;
11699;SDS011;5906;51.660;6.674;2023-06-19T10:25:46;8.03;;;4.30;;
11699;SDS011;5906;51.660;6.674;2023-06-19T10:28:30;13.93;;;5.57;;
11699;SDS011;5906;51.660;6.674;2023-06-19T10:31:00;7.00;;;5.23;;
11699;SDS011;5906;51.660;6.674;2023-06-19T10:33:33;18.77;;;5.10;;
11699;SDS011;5906;51.660;6.674;2023-06-19T10:36:01;6.90;;;5.53;;
11699;SDS011;5906;51.660;6.674;2023-06-19T10:38:40;6.87;;;4.70;;
11699;SDS011;5906;51.660;6.674;2023-06-19T10:41:14;7.33;;;4.97;;
11699;SDS011;5906;51.660;6.674;2023-06-19T10:46:28;8.43;;;5.13;;
11699;SDS011;5906;51.660;6.674;2023-06-19T10:48:58;8.33;;;5.60;;
11699;SDS011;5906;51.660;6.674;2023-06-19T10:51:28;12.90;;;5.47;;
11699;SDS011;5906;51.660;6.674;2023-06-19T10:53:55;8.50;;;5.77;;
11699;SDS011;5906;51.660;6.674;2023-06-19T10:56:23;8.20;;;5.83;;
11699;SDS011;5906;51.660;6.674;2023-06-19T10:59:01;8.77;;;5.43;;
11699;SDS011;5906;51.660;6.674;2023-06-19T11:01:36;9.23;;;4.73;;
11699;SDS011;5906;51.660;6.674;2023-06-19T11:04:15;10.33;;;5.90;;
11699;SDS011;5906;51.660;6.674;2023-06-19T11:06:43;7.40;;;5.70;;
11699;SDS011;5906;51.660;6.674;2023-06-19T11:09:11;7.33;;;5.73;;
11699;SDS011;5906;51.660;6.674;2023-06-19T11:14:07;9.17;;;5.87;;
11699;SDS011;5906;51.660;6.674;2023-06-19T11:16:43;7.30;;;5.60;;
11699;SDS011;5906;51.660;6.674;2023-06-19T11:19:18;7.00;;;5.67;;
11699;SDS011;5906;51.660;6.674;2023-06-19T11:21:47;6.83;;;6.00;;
11699;SDS011;5906;51.660;6.674;2023-06-19T11:24:16;7.70;;;5.50;;
11699;SDS011;5906;51.660;6.674;2023-06-19T11:26:45;8.10;;;5.60;;
11699;SDS011;5906;51.660;6.674;2023-06-19T11:31:48;7.10;;;5.13;;
11699;SDS011;5906;51.660;6.674;2023-06-19T11:34:16;7.03;;;5.70;;
11699;SDS011;5906;51.660;6.674;2023-06-19T11:36:48;7.47;;;5.87;;
11699;SDS011;5906;51.660;6.674;2023-06-19T11:39:15;7.43;;;5.60;;
11699;SDS011;5906;51.660;6.674;2023-06-19T11:41:43;14.50;;;5.80;;
11699;SDS011;5906;51.660;6.674;2023-06-19T11:44:11;7.47;;;4.87;;
11699;SDS011;5906;51.660;6.674;2023-06-19T11:46:39;5.23;;;4.53;;
11699;SDS011;5906;51.660;6.674;2023-06-19T11:49:13;6.97;;;4.80;;
11699;SDS011;5906;51.660;6.674;2023-06-19T11:51:43;16.10;;;5.20;;
11699;SDS011;5906;51.660;6.674;2023-06-19T11:54:11;8.20;;;5.50;;
11699;SDS011;5906;51.660;6.674;2023-06-19T11:56:41;9.60;;;5.10;;
11699;SDS011;5906;51.660;6.674;2023-06-19T11:59:08;8.30;;;5.43;;
11699;SDS011;5906;51.660;6.674;2023-06-19T12:01:35;5.78;;;5.18;;
11699;SDS011;5906;51.660;6.674;2023-06-19T12:04:03;6.32;;;4.75;;
11699;SDS011;5906;51.660;6.674;2023-06-19T12:06:31;8.90;;;5.10;;
11699;SDS011;5906;51.660;6.674;2023-06-19T12:08:58;9.57;;;5.00;;
11699;SDS011;5906;51.660;6.674;2023-06-19T12:11:25;7.03;;;5.07;;
11699;SDS011;5906;51.660;6.674;2023-06-19T12:13:52;8.60;;;4.87;;
11699;SDS011;5906;51.660;6.674;2023-06-19T12:16:24;6.00;;;5.40;;
11699;SDS011;5906;51.660;6.674;2023-06-19T12:18:52;10.90;;;5.43;;
11699;SDS011;5906;51.660;6.674;2023-06-19T12:21:19;4.70;;;4.20;;
11699;SDS011;5906;51.660;6.674;2023-06-19T12:23:59;9.83;;;5.57;;
11699;SDS011;5906;51.660;6.674;2023-06-19T12:26:27;8.38;;;5.35;;
11699;SDS011;5906;51.660;6.674;2023-06-19T12:28:54;7.47;;;5.45;;
11699;SDS011;5906;51.660;6.674;2023-06-19T12:31:21;7.25;;;4.93;;
11699;SDS011;5906;51.660;6.674;2023-06-19T12:33:48;14.98;;;5.25;;
11699;SDS011;5906;51.660;6.674;2023-06-19T12:36:15;7.40;;;5.28;;
11699;SDS011;5906;51.660;6.674;2023-06-19T12:38:42;8.80;;;5.37;;
11699;SDS011;5906;51.660;6.674;2023-06-19T12:41:09;6.17;;;5.57;;
11699;SDS011;5906;51.660;6.674;2023-06-19T12:43:36;8.30;;;5.83;;
11699;SDS011;5906;51.660;6.674;2023-06-19T12:46:03;8.13;;;4.83;;
11699;SDS011;5906;51.660;6.674;2023-06-19T12:48:30;7.43;;;5.17;;
11699;SDS011;5906;51.660;6.674;2023-06-19T12:50:58;6.83;;;4.90;;
11699;SDS011;5906;51.660;6.674;2023-06-19T12:53:25;8.18;;;5.55;;
11699;SDS011;5906;51.660;6.674;2023-06-19T12:55:59;6.28;;;5.18;;
11699;SDS011;5906;51.660;6.674;2023-06-19T12:58:33;6.40;;;4.80;;
11699;SDS011;5906;51.660;6.674;2023-06-19T13:01:00;8.70;;;5.00;;
11699;SDS011;5906;51.660;6.674;2023-06-19T13:03:27;8.55;;;5.70;;
11699;SDS011;5906;51.660;6.674;2023-06-19T13:05:54;5.05;;;3.92;;
11699;SDS011;5906;51.660;6.674;2023-06-19T13:08:21;6.00;;;4.95;;
11699;SDS011;5906;51.660;6.674;2023-06-19T13:10:49;7.03;;;4.80;;
11699;SDS011;5906;51.660;6.674;2023-06-19T13:13:16;8.77;;;5.22;;
11699;SDS011;5906;51.660;6.674;2023-06-19T13:15:42;8.48;;;4.80;;
11699;SDS011;5906;51.660;6.674;2023-06-19T13:18:10;5.88;;;4.55;;
11699;SDS011;5906;51.660;6.674;2023-06-19T13:20:37;7.68;;;4.38;;
11699;SDS011;5906;51.660;6.674;2023-06-19T13:23:04;6.47;;;4.97;;
11699;SDS011;5906;51.660;6.674;2023-06-19T13:25:32;6.75;;;4.95;;
11699;SDS011;5906;51.660;6.674;2023-06-19T13:27:59;5.03;;;4.53;;
11699;SDS011;5906;51.660;6.674;2023-06-19T13:30:26;6.32;;;4.78;;
11699;SDS011;5906;51.660;6.674;2023-06-19T13:32:53;5.10;;;4.57;;
11699;SDS011;5906;51.660;6.674;2023-06-19T13:35:20;6.55;;;4.75;;
11699;SDS011;5906;51.660;6.674;2023-06-19T13:37:47;6.40;;;4.85;;
11699;SDS011;5906;51.660;6.674;2023-06-19T13:40:14;5.97;;;4.90;;
11699;SDS011;5906;51.660;6.674;2023-06-19T13:42:41;9.65;;;5.25;;
11699;SDS011;5906;51.660;6.674;2023-06-19T13:45:08;7.88;;;5.35;;
11699;SDS011;5906;51.660;6.674;2023-06-19T13:47:36;5.80;;;4.90;;
11699;SDS011;5906;51.660;6.674;2023-06-19T13:50:04;7.15;;;4.85;;
11699;SDS011;5906;51.660;6.674;2023-06-19T13:52:33;5.75;;;5.13;;
11699;SDS011;5906;51.660;6.674;2023-06-19T13:55:00;6.47;;;3.92;;
11699;SDS011;5906;51.660;6.674;2023-06-19T13:57:28;6.63;;;4.82;;
11699;SDS011;5906;51.660;6.674;2023-06-19T13:59:55;6.38;;;4.28;;
11699;SDS011;5906;51.660;6.674;2023-06-19T14:02:22;6.00;;;4.55;;
11699;SDS011;5906;51.660;6.674;2023-06-19T14:04:49;5.88;;;4.47;;
11699;SDS011;5906;51.660;6.674;2023-06-19T14:07:16;5.80;;;4.50;;
11699;SDS011;5906;51.660;6.674;2023-06-19T14:09:45;6.05;;;4.47;;
11699;SDS011;5906;51.660;6.674;2023-06-19T14:12:12;6.03;;;4.60;;
11699;SDS011;5906;51.660;6.674;2023-06-19T14:14:39;5.85;;;4.57;;
11699;SDS011;5906;51.660;6.674;2023-06-19T14:17:06;5.10;;;4.60;;
11699;SDS011;5906;51.660;6.674;2023-06-19T14:19:33;6.50;;;4.75;;
11699;SDS011;5906;51.660;6.674;2023-06-19T14:22:00;7.50;;;4.57;;
11699;SDS011;5906;51.660;6.674;2023-06-19T14:24:28;9.23;;;4.97;;
11699;SDS011;5906;51.660;6.674;2023-06-19T14:26:55;6.60;;;4.80;;
11699;SDS011;5906;51.660;6.674;2023-06-19T14:29:22;6.30;;;4.43;;
11699;SDS011;5906;51.660;6.674;2023-06-19T14:31:52;6.20;;;4.90;;
11699;SDS011;5906;51.660;6.674;2023-06-19T14:34:19;5.97;;;4.55;;
11699;SDS011;5906;51.660;6.674;2023-06-19T14:36:46;7.85;;;4.70;;
11699;SDS011;5906;51.660;6.674;2023-06-19T14:39:14;7.88;;;4.32;;
11699;SDS011;5906;51.660;6.674;2023-06-19T14:41:41;5.00;;;3.90;;
11699;SDS011;5906;51.660;6.674;2023-06-19T14:44:08;6.10;;;3.95;;
11699;SDS011;5906;51.660;6.674;2023-06-19T14:46:35;14.75;;;4.85;;
11699;SDS011;5906;51.660;6.674;2023-06-19T14:49:06;6.30;;;4.78;;
11699;SDS011;5906;51.660;6.674;2023-06-19T14:51:33;6.10;;;4.63;;
11699;SDS011;5906;51.660;6.674;2023-06-19T14:54:00;8.68;;;4.93;;
11699;SDS011;5906;51.660;6.674;2023-06-19T14:56:28;6.18;;;4.47;;
11699;SDS011;5906;51.660;6.674;2023-06-19T14:58:55;6.80;;;5.07;;
11699;SDS011;5906;51.660;6.674;2023-06-19T15:01:22;5.90;;;4.40;;
11699;SDS011;5906;51.660;6.674;2023-06-19T15:03:49;6.00;;;4.45;;
11699;SDS011;5906;51.660;6.674;2023-06-19T15:06:16;6.07;;;4.72;;
11699;SDS011;5906;51.660;6.674;2023-06-19T15:08:43;13.80;;;4.85;;
11699;SDS011;5906;51.660;6.674;2023-06-19T15:11:10;10.98;;;4.63;;
11699;SDS011;5906;51.660;6.674;2023-06-19T15:13:37;6.65;;;4.80;;
11699;SDS011;5906;51.660;6.674;2023-06-19T15:16:04;5.47;;;4.72;;
11699;SDS011;5906;51.660;6.674;2023-06-19T15:18:34;4.82;;;4.38;;
11699;SDS011;5906;51.660;6.674;2023-06-19T15:21:01;6.38;;;4.97;;
11699;SDS011;5906;51.660;6.674;2023-06-19T15:23:28;6.47;;;5.25;;
11699;SDS011;5906;51.660;6.674;2023-06-19T15:25:55;12.52;;;4.82;;
11699;SDS011;5906;51.660;6.674;2023-06-19T15:28:22;6.53;;;4.45;;
11699;SDS011;5906;51.660;6.674;2023-06-19T15:30:49;6.90;;;4.35;;
11699;SDS011;5906;51.660;6.674;2023-06-19T15:33:16;6.57;;;4.43;;
11699;SDS011;5906;51.660;6.674;2023-06-19T15:35:44;5.20;;;4.65;;